C59 weather

Lake Lawn Airport
Delavan, Wisconsin, United States

Public forecast

Using degrees Fahrenheit for public forecast. Weather courtesy of forecast.io.

Closest aviation weather report (METAR) to Lake Lawn Airport

Closest report is Burlington Municipal Airport, 13.5 nm (25.0 km) ENE. Retrieved 2020/04/08 11:35 UTC (0 seconds ago):

KBUU 081135Z AUTO 00000KT 2 1/2SM BR OVC007 10/10 A2974 RMK AO2 T00970097

Closest aviation forecast (TAF) to Lake Lawn Airport

Closest forecast is Waukesha County Airport, 29.2 nm (54.1 km) NNE. Retrieved 2020/04/08 06:22 UTC (5 hours ago):

TAF KUES 080520Z 0806/0906 34004KT 6SM BR SCT018 FM080900 VRB03KT 2SM BR FEW018 FM081100 00000KT 1/2SM FG BKN003 FM081400 21004KT P6SM SCT003 SCT120 FM082000 25011G20KT P6SM VCSH BKN070 FM090200 31012KT P6SM SCT100